| time (UTC) | temp F | wind direction | speed MPH | gust MPH | rain 1hr in | rain 24hr in | rain mn in | humidity % | barometer mb |
| 20260906060538 | 73 | 33 | 0.0 | 1.0 | 0.00 | 0.39 | 0.00 | 96 | 1013.4 |
| 20260906060005 | 74 | 295 | 0.0 | 0.0 | 0.00 | 0.00 | 0.00 | 96 | 1011.9 |
| 20260906055518 | 74 | 295 | 0.0 | 0.0 | 0.00 | 0.39 | 0.00 | 96 | 1013.0 |
| 20260906054518 | 74 | 343 | 0.0 | 1.0 | 0.00 | 0.39 | 0.00 | 96 | 1013.0 |
| 20260906053521 | 74 | 36 | 0.0 | 0.0 | 0.00 | 0.39 | 0.00 | 96 | 1013.0 |
| 20260906052516 | 74 | 197 | 0.0 | 0.0 | 0.00 | 0.39 | 0.00 | 95 | 1013.0 |
| 20260906051539 | 74 | 56 | 0.0 | 2.0 | 0.00 | 0.39 | 0.00 | 95 | 1012.9 |
| 20260906050516 | 74 | 18 | 0.0 | 2.0 | 0.00 | 0.39 | 0.00 | 94 | 1013.2 |
| 20260906050005 | 74 | 154 | 0.0 | 0.0 | 0.00 | 0.00 | 0.00 | 94 | 1012.1 |
| 20260906045516 | 74 | 154 | 0.0 | 0.0 | 0.00 | 0.39 | 0.00 | 94 | 1013.2 |
| 20260906044516 | 74 | 179 | 0.0 | 2.0 | 0.00 | 0.39 | 0.00 | 94 | 1013.4 |
| 20260906043516 | 74 | 330 | 0.0 | 0.0 | 0.00 | 0.39 | 0.00 | 94 | 1013.4 |
| 20260906042520 | 75 | 354 | 0.0 | 1.0 | 0.00 | 0.39 | 0.00 | 93 | 1013.4 |
| 20260906041517 | 75 | 44 | 0.0 | 1.0 | 0.00 | 0.39 | 0.00 | 94 | 1013.4 |
| 20260906040517 | 75 | 0 | 0.0 | 1.0 | 0.00 | 0.39 | 0.00 | 94 | 1013.4 |
| 20260906040006 | 75 | 33 | 0.0 | 1.0 | 0.00 | 0.00 | 0.00 | 93 | 1012.2 |
| 20260906035518 | 75 | 33 | 0.0 | 1.0 | 0.00 | 0.39 | 0.39 | 93 | 1013.3 |
| 20260906034537 | 75 | 353 | 0.0 | 1.0 | 0.00 | 0.39 | 0.39 | 92 | 1013.4 |
| 20260906033518 | 75 | 89 | 0.0 | 1.0 | 0.00 | 0.39 | 0.39 | 89 | 1013.5 |
| 20260906032518 | 75 | 45 | 0.0 | 1.0 | 0.00 | 0.39 | 0.39 | 90 | 1013.6 |
| 20260906031518 | 75 | 29 | 0.0 | 1.0 | 0.00 | 0.39 | 0.39 | 90 | 1013.5 |
| 20260906030518 | 75 | 24 | 0.0 | 1.0 | 0.00 | 0.39 | 0.39 | 90 | 1013.6 |
| 20260906030006 | 75 | 70 | 0.0 | 1.0 | 0.00 | 0.00 | 0.00 | 90 | 1012.3 |
| 20260906025538 | 75 | 70 | 0.0 | 1.0 | 0.00 | 0.39 | 0.39 | 90 | 1013.5 |
| 20260906024519 | 76 | 322 | 0.0 | 1.0 | 0.00 | 0.39 | 0.39 | 89 | 1013.4 |
| 20260906023515 | 76 | 21 | 0.0 | 1.0 | 0.00 | 0.39 | 0.39 | 88 | 1013.1 |
| 20260906022536 | 77 | 291 | 0.0 | 0.0 | 0.00 | 0.39 | 0.39 | 85 | 1013.0 |
| 20260906021536 | 77 | 25 | 0.0 | 1.0 | 0.00 | 0.39 | 0.39 | 85 | 1013.2 |
| 20260906020516 | 77 | 53 | 0.0 | 0.0 | 0.00 | 0.39 | 0.39 | 86 | 1013.0 |
| 20260906020005 | 77 | 342 | 0.0 | 1.0 | 0.00 | 0.00 | 0.00 | 84 | 1011.7 |
| 20260906015517 | 77 | 342 | 0.0 | 1.0 | 0.00 | 0.39 | 0.39 | 84 | 1012.9 |
| 20260906014517 | 77 | 0.0 | 0.0 | 0.00 | 0.39 | 0.39 | 84 | 1012.8 | |
| 20260906013517 | 78 | 343 | 0.0 | 2.0 | 0.00 | 0.39 | 0.39 | 83 | 1012.7 |
| 20260906012517 | 78 | 18 | 0.0 | 1.0 | 0.00 | 0.39 | 0.39 | 81 | 1012.5 |
| 20260906011517 | 79 | 234 | 0.0 | 2.0 | 0.00 | 0.39 | 0.39 | 81 | 1012.5 |
| 20260906010517 | 79 | 44 | 0.0 | 3.0 | 0.00 | 0.39 | 0.39 | 81 | 1012.5 |
| 20260906010005 | 78 | 251 | 0.0 | 3.0 | 0.00 | 0.00 | 0.00 | 80 | 1011.1 |
| 20260906005517 | 78 | 251 | 0.0 | 3.0 | 0.00 | 0.39 | 0.39 | 80 | 1012.4 |
| 20260906004518 | 79 | 331 | 0.0 | 2.0 | 0.00 | 0.39 | 0.39 | 79 | 1012.3 |
| 20260906003538 | 79 | 345 | 0.0 | 2.0 | 0.00 | 0.39 | 0.39 | 80 | 1012.2 |
| 20260906002521 | 80 | 8 | 0.0 | 2.0 | 0.00 | 0.39 | 0.39 | 78 | 1012.1 |
| 20260906001518 | 81 | 26 | 0.0 | 1.0 | 0.00 | 0.39 | 0.39 | 75 | 1012.1 |
| 20260906000518 | 82 | 30 | 0.0 | 2.0 | 0.00 | 0.39 | 0.39 | 73 | 1012.1 |
| 20260906000006 | 82 | 207 | 0.0 | 2.0 | 0.00 | 0.00 | 0.00 | 71 | 1010.8 |
| 20260905235538 | 82 | 207 | 0.0 | 2.0 | 0.00 | 0.39 | 0.39 | 71 | 1012.3 |
| 20260905234539 | 82 | 0.0 | 0.0 | 0.00 | 0.39 | 0.39 | 74 | 1012.4 | |
| 20260905233515 | 83 | 315 | 0.0 | 1.0 | 0.00 | 0.39 | 0.39 | 77 | 1012.5 |
| 20260905232516 | 84 | 2 | 0.0 | 1.0 | 0.00 | 0.39 | 0.39 | 72 | 1012.4 |
| 20260905231516 | 86 | 50 | 0.0 | 1.0 | 0.00 | 0.39 | 0.39 | 63 | 1012.2 |
| 20260905230536 | 86 | 224 | 0.0 | 2.0 | 0.00 | 0.39 | 0.39 | 65 | 1011.9 |
| 20260905230006 | 86 | 243 | 0.0 | 2.0 | 0.00 | 0.00 | 0.00 | 66 | 1010.1 |
| 20260905225536 | 86 | 243 | 0.0 | 2.0 | 0.00 | 0.39 | 0.39 | 66 | 1011.9 |
| 20260905224537 | 87 | 25 | 0.0 | 1.0 | 0.00 | 0.39 | 0.39 | 66 | 1012.0 |
| 20260905223516 | 88 | 28 | 0.0 | 1.0 | 0.00 | 0.39 | 0.39 | 63 | 1012.1 |
| 20260905222517 | 88 | 328 | 0.0 | 1.0 | 0.00 | 0.51 | 0.39 | 61 | 1011.9 |
| 20260905221517 | 89 | 205 | 0.0 | 2.0 | 0.00 | 0.52 | 0.39 | 61 | 1012.0 |
| 20260905220520 | 90 | 26 | 1.0 | 3.0 | 0.00 | 0.52 | 0.39 | 59 | 1012.5 |
| 20260905220005 | 91 | 345 | 0.0 | 1.0 | 0.00 | 0.00 | 0.00 | 57 | 1010.6 |
| 20260905215538 | 91 | 345 | 0.0 | 1.0 | 0.00 | 0.52 | 0.39 | 57 | 1012.6 |
| 20260905214518 | 91 | 239 | 0.0 | 2.0 | 0.00 | 0.52 | 0.39 | 60 | 1012.6 |
| 20260905213538 | 90 | 246 | 0.0 | 2.0 | 0.00 | 0.52 | 0.39 | 60 | 1012.8 |
| 20260905212538 | 88 | 233 | 1.0 | 4.0 | 0.00 | 0.52 | 0.39 | 61 | 1012.8 |
| 20260905211519 | 87 | 237 | 1.0 | 5.0 | 0.00 | 0.52 | 0.39 | 67 | 1012.7 |
| 20260905210518 | 87 | 247 | 1.0 | 4.0 | 0.00 | 0.52 | 0.39 | 67 | 1012.5 |
| 20260905210006 | 88 | 238 | 1.0 | 5.0 | 0.00 | 0.00 | 0.00 | 67 | 1010.8 |
| 20260905205516 | 88 | 238 | 1.0 | 5.0 | 0.00 | 0.52 | 0.39 | 67 | 1012.7 |
| 20260905204516 | 89 | 247 | 1.0 | 4.0 | 0.00 | 0.52 | 0.39 | 69 | 1012.5 |
| 20260905203516 | 89 | 39 | 1.0 | 3.0 | 0.00 | 0.52 | 0.39 | 71 | 1012.4 |
| 20260905202516 | 89 | 260 | 0.0 | 3.0 | 0.00 | 0.52 | 0.39 | 71 | 1012.4 |
| 20260905201516 | 86 | 259 | 1.0 | 4.0 | 0.00 | 0.52 | 0.39 | 75 | 1012.7 |
| 20260905200536 | 83 | 357 | 0.0 | 2.0 | 0.00 | 0.52 | 0.39 | 87 | 1012.8 |
| 20260905200005 | 81 | 307 | 1.0 | 5.0 | 0.00 | 0.00 | 0.00 | 89 | 1011.4 |
| 20260905195516 | 81 | 307 | 1.0 | 5.0 | 0.00 | 0.52 | 0.39 | 89 | 1012.9 |
| 20260905194517 | 79 | 116 | 1.0 | 5.0 | 0.04 | 0.52 | 0.39 | 94 | 1013.1 |
| 20260905193517 | 78 | 323 | 1.0 | 4.0 | 0.24 | 0.52 | 0.39 | 94 | 1013.0 |
| 20260905192517 | 78 | 58 | 1.0 | 3.0 | 0.30 | 0.52 | 0.39 | 93 | 1013.1 |
| 20260905191537 | 77 | 288 | 0.0 | 2.0 | 0.30 | 0.52 | 0.39 | 92 | 1013.3 |
| 20260905190538 | 77 | 328 | 1.0 | 2.0 | 0.31 | 0.52 | 0.39 | 90 | 1013.5 |
| 20260905190005 | 78 | 192 | 2.0 | 6.0 | 0.81 | 0.00 | 0.00 | 82 | 1012.1 |
| 20260905185517 | 78 | 192 | 2.0 | 6.0 | 0.39 | 0.52 | 0.39 | 82 | 1013.4 |
| 20260905184518 | 82 | 297 | 2.0 | 8.0 | 0.34 | 0.47 | 0.34 | 77 | 1013.8 |
| 20260905183518 | 90 | 241 | 2.0 | 7.0 | 0.15 | 0.28 | 0.15 | 67 | 1013.6 |
| 20260905182538 | 89 | 263 | 0.0 | 1.0 | 0.09 | 0.22 | 0.09 | 70 | 1013.4 |
| 20260905181550 | 91 | 253 | 1.0 | 2.0 | 0.09 | 0.22 | 0.09 | 67 | 1013.5 |
| 20260905180530 | 96 | 0.0 | 0.0 | 0.08 | 0.21 | 0.08 | 58 | 1013.6 | |
| 20260905180005 | 98 | 282 | 1.0 | 3.0 | 0.00 | 0.00 | 0.00 | 50 | 1011.1 |
| 20260905175531 | 98 | 282 | 1.0 | 3.0 | 0.00 | 0.13 | 0.00 | 50 | 1013.5 |
| 20260905174550 | 97 | 231 | 0.0 | 4.0 | 0.00 | 0.13 | 0.00 | 51 | 1013.5 |
| 20260905173516 | 96 | 267 | 0.0 | 2.0 | 0.00 | 0.13 | 0.00 | 50 | 1013.6 |
| 20260905172536 | 95 | 231 | 1.0 | 2.0 | 0.00 | 0.13 | 0.00 | 54 | 1013.8 |
| 20260905171516 | 94 | 245 | 1.0 | 3.0 | 0.00 | 0.13 | 0.00 | 54 | 1013.8 |
| 20260905170516 | 94 | 44 | 0.0 | 1.0 | 0.00 | 0.13 | 0.00 | 53 | 1013.9 |
| 20260905170005 | 93 | 240 | 1.0 | 4.0 | 0.00 | 0.00 | 0.00 | 56 | 1011.9 |
| 20260905165516 | 93 | 240 | 1.0 | 4.0 | 0.00 | 0.13 | 0.00 | 56 | 1014.0 |
| 20260905164517 | 93 | 234 | 1.0 | 2.0 | 0.00 | 0.13 | 0.00 | 57 | 1014.2 |
| 20260905163516 | 93 | 44 | 1.0 | 3.0 | 0.00 | 0.13 | 0.00 | 58 | 1014.3 |
| 20260905162518 | 92 | 296 | 0.0 | 3.0 | 0.00 | 0.13 | 0.00 | 61 | 1014.5 |
| 20260905161538 | 91 | 224 | 0.0 | 2.0 | 0.00 | 0.13 | 0.00 | 61 | 1014.6 |
| 20260905160538 | 90 | 236 | 0.0 | 3.0 | 0.00 | 0.13 | 0.00 | 63 | 1014.6 |
| 20260905160005 | 90 | 41 | 0.0 | 2.0 | 0.00 | 0.00 | 0.00 | 63 | 1012.8 |
| 20260905155538 | 90 | 41 | 0.0 | 2.0 | 0.00 | 0.13 | 0.00 | 63 | 1014.7 |
| 20260905154518 | 89 | 233 | 0.0 | 2.0 | 0.00 | 0.13 | 0.00 | 64 | 1014.8 |
| 20260905153518 | 89 | 38 | 0.0 | 3.0 | 0.00 | 0.13 | 0.00 | 66 | 1014.9 |
| 20260905152516 | 88 | 346 | 0.0 | 1.0 | 0.00 | 0.13 | 0.00 | 68 | 1015.0 |
| 20260905151516 | 87 | 258 | 0.0 | 2.0 | 0.00 | 0.13 | 0.00 | 68 | 1015.0 |
| 20260905150516 | 86 | 218 | 0.0 | 1.0 | 0.00 | 0.13 | 0.00 | 70 | 1015.1 |
| 20260905150005 | 85 | 300 | 0.0 | 2.0 | 0.00 | 0.00 | 0.00 | 71 | 1013.4 |
| 20260905145536 | 85 | 300 | 0.0 | 2.0 | 0.00 | 0.13 | 0.00 | 71 | 1015.1 |
| 20260905144516 | 84 | 59 | 0.0 | 2.0 | 0.00 | 0.13 | 0.00 | 73 | 1015.2 |
| 20260905143536 | 83 | 359 | 0.0 | 1.0 | 0.00 | 0.13 | 0.00 | 79 | 1015.3 |
| 20260905142517 | 83 | 41 | 1.0 | 3.0 | 0.00 | 0.13 | 0.00 | 81 | 1015.3 |
| 20260905141517 | 82 | 299 | 0.0 | 1.0 | 0.00 | 0.13 | 0.00 | 83 | 1015.4 |
| 20260905140557 | 81 | 316 | 0.0 | 1.0 | 0.00 | 0.13 | 0.00 | 84 | 1015.4 |
| 20260905140005 | 80 | 39 | 0.0 | 2.0 | 0.00 | 0.00 | 0.00 | 85 | 1014.0 |
| 20260905135517 | 80 | 39 | 0.0 | 2.0 | 0.00 | 0.13 | 0.00 | 85 | 1015.4 |
| 20260905134517 | 79 | 181 | 0.0 | 2.0 | 0.00 | 0.13 | 0.00 | 85 | 1015.4 |
| 20260905133518 | 78 | 0.0 | 0.0 | 0.00 | 0.13 | 0.00 | 89 | 1015.5 | |
| 20260905132538 | 78 | 13 | 0.0 | 1.0 | 0.00 | 0.13 | 0.00 | 89 | 1015.6 |
| 20260905131518 | 77 | 43 | 0.0 | 2.0 | 0.00 | 0.13 | 0.00 | 91 | 1015.7 |
| 20260905130518 | 76 | 54 | 0.0 | 1.0 | 0.00 | 0.13 | 0.00 | 93 | 1015.7 |
| 20260905130006 | 76 | 0.0 | 0.0 | 0.00 | 0.00 | 0.00 | 95 | 1014.5 | |
| 20260905125518 | 76 | 0.0 | 0.0 | 0.00 | 0.13 | 0.00 | 95 | 1015.7 | |
| 20260905124538 | 75 | 238 | 0.0 | 1.0 | 0.00 | 0.13 | 0.00 | 96 | 1015.7 |
| 20260905123518 | 75 | 71 | 0.0 | 1.0 | 0.00 | 0.13 | 0.00 | 96 | 1015.7 |
| 20260905122515 | 74 | 35 | 0.0 | 1.0 | 0.00 | 0.13 | 0.00 | 97 | 1015.6 |
| 20260905121516 | 74 | 347 | 0.0 | 0.0 | 0.00 | 0.13 | 0.00 | 97 | 1015.5 |
| 20260905120516 | 74 | 17 | 0.0 | 1.0 | 0.00 | 0.13 | 0.00 | 97 | 1015.5 |
| 20260905120006 | 73 | 325 | 0.0 | 1.0 | 0.00 | 0.00 | 0.00 | 97 | 1014.3 |
| 20260905115516 | 73 | 325 | 0.0 | 1.0 | 0.00 | 0.13 | 0.00 | 97 | 1015.3 |
| 20260905114520 | 73 | 96 | 0.0 | 1.0 | 0.00 | 0.13 | 0.00 | 97 | 1015.2 |
| 20260905113517 | 73 | 20 | 0.0 | 1.0 | 0.00 | 0.13 | 0.00 | 98 | 1015.1 |
| 20260905112517 | 73 | 24 | 0.0 | 0.0 | 0.00 | 0.13 | 0.00 | 97 | 1014.9 |
| 20260905111517 | 73 | 291 | 0.0 | 1.0 | 0.00 | 0.13 | 0.00 | 97 | 1014.8 |
| 20260905110537 | 73 | 321 | 0.0 | 1.0 | 0.00 | 0.13 | 0.00 | 97 | 1014.6 |
| 20260905110005 | 73 | 299 | 0.0 | 1.0 | 0.00 | 0.00 | 0.00 | 97 | 1013.6 |
| 20260905105517 | 73 | 299 | 0.0 | 1.0 | 0.00 | 0.13 | 0.00 | 97 | 1014.6 |
| 20260905104518 | 73 | 347 | 0.0 | 1.0 | 0.00 | 0.13 | 0.00 | 97 | 1014.5 |
| 20260905103517 | 73 | 44 | 0.0 | 1.0 | 0.00 | 0.13 | 0.00 | 97 | 1014.6 |
| 20260905102517 | 74 | 92 | 0.0 | 2.0 | 0.00 | 0.13 | 0.00 | 97 | 1014.5 |
| 20260905101518 | 74 | 252 | 0.0 | 1.0 | 0.00 | 0.13 | 0.00 | 97 | 1014.5 |
| 20260905100518 | 74 | 13 | 0.0 | 1.0 | 0.00 | 0.13 | 0.00 | 96 | 1014.4 |
| 20260905100005 | 74 | 161 | 0.0 | 1.0 | 0.00 | 0.00 | 0.00 | 95 | 1013.3 |
| 20260905095518 | 74 | 161 | 0.0 | 1.0 | 0.00 | 0.13 | 0.00 | 95 | 1014.4 |
| 20260905094518 | 74 | 317 | 0.0 | 0.0 | 0.00 | 0.13 | 0.00 | 95 | 1014.3 |
| 20260905093518 | 74 | 336 | 0.0 | 1.0 | 0.00 | 0.13 | 0.00 | 95 | 1014.2 |
| 20260905092535 | 74 | 327 | 0.0 | 1.0 | 0.00 | 0.13 | 0.00 | 95 | 1014.2 |
| 20260905091516 | 75 | 321 | 0.0 | 0.0 | 0.00 | 0.13 | 0.00 | 94 | 1014.2 |
| 20260905090519 | 75 | 253 | 0.0 | 1.0 | 0.00 | 0.13 | 0.00 | 94 | 1014.2 |
| 20260905090005 | 75 | 358 | 0.0 | 0.0 | 0.00 | 0.00 | 0.00 | 93 | 1013.0 |
| 20260905085516 | 75 | 358 | 0.0 | 0.0 | 0.00 | 0.13 | 0.00 | 93 | 1014.1 |
| 20260905084516 | 75 | 55 | 0.0 | 1.0 | 0.00 | 0.13 | 0.00 | 93 | 1014.1 |
| 20260905083517 | 75 | 334 | 0.0 | 1.0 | 0.00 | 0.13 | 0.00 | 92 | 1014.2 |
| 20260905082516 | 75 | 333 | 0.0 | 1.0 | 0.00 | 0.13 | 0.00 | 92 | 1014.1 |
| 20260905081537 | 75 | 218 | 0.0 | 1.0 | 0.00 | 0.13 | 0.00 | 92 | 1014.2 |
| 20260905080517 | 75 | 327 | 0.0 | 1.0 | 0.00 | 0.13 | 0.00 | 92 | 1014.0 |
| 20260905080005 | 75 | 33 | 0.0 | 2.0 | 0.00 | 0.00 | 0.00 | 94 | 1012.9 |
| 20260905075517 | 75 | 33 | 0.0 | 2.0 | 0.00 | 0.13 | 0.00 | 94 | 1014.0 |
| 20260905074517 | 75 | 27 | 0.0 | 2.0 | 0.00 | 0.13 | 0.00 | 93 | 1014.0 |
| 20260905073537 | 75 | 14 | 0.0 | 1.0 | 0.00 | 0.13 | 0.00 | 93 | 1014.0 |
| 20260905072538 | 75 | 0.0 | 0.0 | 0.00 | 0.13 | 0.00 | 93 | 1013.9 | |
| 20260905071558 | 76 | 59 | 0.0 | 0.0 | 0.00 | 0.13 | 0.00 | 92 | 1014.0 |
| 20260905070518 | 76 | 242 | 0.0 | 1.0 | 0.00 | 0.13 | 0.00 | 92 | 1014.1 |
| 20260905070006 | 76 | 114 | 0.0 | 2.0 | 0.00 | 0.00 | 0.00 | 91 | 1013.0 |
| 20260905065518 | 76 | 114 | 0.0 | 2.0 | 0.00 | 0.13 | 0.00 | 91 | 1014.1 |
| 20260905064518 | 76 | 358 | 0.0 | 1.0 | 0.00 | 0.13 | 0.00 | 91 | 1014.2 |
| 20260905063515 | 77 | 358 | 0.0 | 1.0 | 0.00 | 0.13 | 0.00 | 90 | 1014.2 |
| 20260905062536 | 77 | 56 | 0.0 | 2.0 | 0.00 | 0.13 | 0.00 | 88 | 1014.2 |
| 20260905061516 | 77 | 60 | 0.0 | 1.0 | 0.00 | 0.13 | 0.00 | 87 | 1014.4 |